Airport Information

KHIO - Portland Hillsboro Airport

KHIO 251153Z 00000KT 10SM CLR 05/03 A2995 RMK AO2 SLP144 T00500033 10061 20028 58023


  • General Information

  • Coordinates: N 45°32'25"/ W 122°56'59"
  • Location: N/A
  • Surveyed Elevation: 204 MSL

Operations

Flow Name Active Runways Conditions

Green background denotes normal operations.


Common Frequencies

Callsign Frequency Position Name

More at the Document Center


Charts

Name Description Cycle
BERNI THREE Page 1 1903
CANBY TWO Page 1 | Page 2 1903
CHISM FOUR Page 1 1903
FARMINGTON SEVEN Page 1 | Page 2 1903
SCAPO SEVEN Page 1 | Page 2 1903
Name Description Cycle
HELNS SIX Page 1 1903
OCITY TWO Page 1 1903